createdAt,value
2022-09-02T00:00:21.727Z,64.45
2022-09-02T00:01:20.702Z,66.21
2022-09-02T00:02:20.756Z,66.95
2022-09-02T00:03:20.886Z,64.65
2022-09-02T00:04:20.676Z,64.81
2022-09-02T00:05:20.626Z,63.78
2022-09-02T00:06:20.615Z,63.62
2022-09-02T00:07:20.602Z,64.51
2022-09-02T00:08:20.588Z,64.30
2022-09-02T00:09:20.608Z,63.33
2022-09-02T00:10:20.561Z,62.20
2022-09-02T00:11:20.526Z,63.34
2022-09-02T00:12:20.528Z,66.56
2022-09-02T00:13:20.680Z,66.32
2022-09-02T00:14:20.497Z,67.64
2022-09-02T00:15:20.456Z,63.67
2022-09-02T00:16:20.547Z,64.24
2022-09-02T00:17:20.435Z,64.37
2022-09-02T00:18:20.426Z,64.04
2022-09-02T00:19:20.442Z,61.75
2022-09-02T00:20:20.379Z,65.53
2022-09-02T00:21:20.379Z,65.51
2022-09-02T00:22:20.462Z,65.76
2022-09-02T00:23:20.502Z,65.23
2022-09-02T00:24:20.357Z,65.95
2022-09-02T00:25:20.305Z,65.29
2022-09-02T00:26:20.290Z,65.94
2022-09-02T00:27:20.286Z,67.48
2022-09-02T00:28:20.243Z,64.18
2022-09-02T00:29:20.264Z,64.77
2022-09-02T00:30:20.218Z,62.44
2022-09-02T00:31:20.251Z,64.01
2022-09-02T00:32:20.163Z,63.29
2022-09-02T00:33:20.160Z,64.84
2022-09-02T00:34:20.173Z,63.72
2022-09-02T00:35:20.129Z,62.99
2022-09-02T00:36:20.200Z,65.10
2022-09-02T00:37:20.080Z,64.74
2022-09-02T00:38:20.083Z,66.14
2022-09-02T00:39:20.092Z,67.53
2022-09-02T00:40:20.084Z,66.78
2022-09-02T00:41:20.026Z,65.53
2022-09-02T00:42:20.012Z,66.94
2022-09-02T00:43:20.016Z,65.08
2022-09-02T00:44:19.996Z,65.00
2022-09-02T00:45:19.950Z,65.88
2022-09-02T00:46:19.941Z,63.06
2022-09-02T00:47:19.918Z,62.15
2022-09-02T00:48:19.905Z,63.77
2022-09-02T00:49:19.913Z,64.25
2022-09-02T00:50:19.877Z,66.48
2022-09-02T00:51:19.869Z,67.05
2022-09-02T00:52:19.842Z,64.68
2022-09-02T00:53:19.880Z,64.18
2022-09-02T00:54:19.843Z,65.97
2022-09-02T00:55:19.799Z,64.51
2022-09-02T00:56:19.773Z,62.85
2022-09-02T00:57:19.785Z,65.94
2022-09-02T00:58:19.734Z,64.46
2022-09-02T00:59:19.784Z,62.59
2022-09-02T01:00:20.722Z,64.83
2022-09-02T01:01:19.824Z,62.16
2022-09-02T01:02:19.791Z,65.73
2022-09-02T01:03:19.735Z,65.38
2022-09-02T01:04:19.667Z,64.37
2022-09-02T01:05:19.629Z,66.12
2022-09-02T01:06:19.617Z,64.84
2022-09-02T01:07:19.593Z,65.76
2022-09-02T01:08:19.592Z,68.01
2022-09-02T01:09:19.599Z,67.54
2022-09-02T01:10:19.552Z,66.75
2022-09-02T01:11:19.521Z,65.08
2022-09-02T01:12:19.522Z,66.56
2022-09-02T01:13:19.527Z,64.16
2022-09-02T01:14:19.520Z,65.99
2022-09-02T01:15:19.462Z,64.92
2022-09-02T01:16:19.475Z,63.37
2022-09-02T01:17:19.437Z,64.85
2022-09-02T01:18:19.393Z,66.08
2022-09-02T01:19:20.423Z,67.29
2022-09-02T01:20:19.377Z,62.94
2022-09-02T01:21:19.357Z,65.91
2022-09-02T01:22:19.339Z,68.38
2022-09-02T01:23:19.406Z,66.72
2022-09-02T01:24:19.339Z,68.12
2022-09-02T01:25:19.289Z,66.85
2022-09-02T01:26:19.275Z,66.43
2022-09-02T01:27:19.259Z,65.72
2022-09-02T01:28:19.253Z,64.74
2022-09-02T01:29:19.267Z,67.27
2022-09-02T01:30:19.224Z,62.60
2022-09-02T01:31:19.210Z,65.18
2022-09-02T01:32:19.182Z,67.91
2022-09-02T01:33:19.231Z,63.36
2022-09-02T01:34:19.179Z,63.72
2022-09-02T01:35:19.136Z,68.48
2022-09-02T01:36:19.113Z,65.27
2022-09-02T01:37:19.099Z,64.10
2022-09-02T01:38:19.065Z,67.23
2022-09-02T01:39:19.090Z,64.58
2022-09-02T01:40:19.076Z,65.23
2022-09-02T01:41:19.036Z,64.68
2022-09-02T01:42:19.009Z,64.05
2022-09-02T01:43:19.066Z,64.48
2022-09-02T01:44:19.004Z,67.67
2022-09-02T01:45:18.988Z,67.53
2022-09-02T01:46:18.986Z,67.42
2022-09-02T01:47:18.922Z,67.76
2022-09-02T01:48:21.870Z,65.52
2022-09-02T01:49:18.935Z,63.86
2022-09-02T01:50:18.873Z,67.06
2022-09-02T01:51:18.863Z,65.18
2022-09-02T01:52:18.854Z,65.78
2022-09-02T01:53:18.881Z,66.65
2022-09-02T01:54:18.833Z,65.81
2022-09-02T01:55:18.794Z,66.40
2022-09-02T01:56:18.783Z,66.66
2022-09-02T01:57:18.756Z,65.45
2022-09-02T01:58:18.758Z,66.55
2022-09-02T01:59:18.750Z,65.48
2022-09-02T02:00:18.718Z,66.82
2022-09-02T02:01:18.740Z,65.59
2022-09-02T02:02:18.731Z,63.73
2022-09-02T02:03:18.651Z,63.68
2022-09-02T02:04:18.688Z,66.52
2022-09-02T02:05:18.626Z,67.08
2022-09-02T02:06:18.601Z,65.55
2022-09-02T02:07:18.603Z,66.96
2022-09-02T02:08:18.579Z,68.28
2022-09-02T02:09:20.928Z,66.65
2022-09-02T02:10:18.541Z,65.80
2022-09-02T02:11:18.533Z,66.11
2022-09-02T02:12:18.510Z,65.90
2022-09-02T02:13:18.491Z,64.66
2022-09-02T02:14:18.517Z,66.50
2022-09-02T02:15:18.465Z,67.81
2022-09-02T02:16:18.507Z,66.45
2022-09-02T02:17:18.430Z,68.81
2022-09-02T02:18:18.415Z,66.55
2022-09-02T02:19:19.422Z,66.54
2022-09-02T02:20:18.407Z,65.30
2022-09-02T02:21:18.371Z,67.85
2022-09-02T02:22:18.362Z,65.93
2022-09-02T02:23:18.440Z,64.81
2022-09-02T02:24:18.369Z,66.86
2022-09-02T02:25:18.299Z,67.64
2022-09-02T02:26:18.302Z,65.20
2022-09-02T02:27:18.263Z,66.10
2022-09-02T02:28:18.244Z,64.56
2022-09-02T02:29:18.270Z,66.64
2022-09-02T02:30:18.219Z,65.60
2022-09-02T02:31:18.268Z,68.31
2022-09-02T02:32:18.195Z,66.39
2022-09-02T02:33:18.206Z,65.81
2022-09-02T02:34:18.184Z,66.94
2022-09-02T02:35:18.140Z,67.56
2022-09-02T02:36:18.130Z,67.29
2022-09-02T02:37:21.080Z,65.64
2022-09-02T02:38:19.072Z,65.21
2022-09-02T02:39:18.116Z,65.95
2022-09-02T02:40:18.127Z,69.24
2022-09-02T02:41:19.021Z,68.13
2022-09-02T02:42:18.004Z,67.21
2022-09-02T02:43:18.071Z,66.51
2022-09-02T02:44:18.008Z,66.84
2022-09-02T02:45:18.082Z,67.89
2022-09-02T02:46:17.991Z,64.41
2022-09-02T02:47:17.923Z,66.98
2022-09-02T02:48:17.927Z,67.89
2022-09-02T02:49:17.923Z,67.50
2022-09-02T02:50:17.887Z,67.21
2022-09-02T02:51:17.875Z,69.49
2022-09-02T02:52:17.861Z,67.27
2022-09-02T02:53:17.880Z,66.35
2022-09-02T02:54:17.860Z,68.75
2022-09-02T02:55:17.876Z,65.03
2022-09-02T02:56:17.768Z,67.66
2022-09-02T02:57:17.784Z,67.33
2022-09-02T02:58:17.751Z,66.90
2022-09-02T02:59:17.782Z,68.41
2022-09-02T03:00:17.806Z,67.22
2022-09-02T03:01:17.759Z,67.90
2022-09-02T03:02:18.803Z,65.99
2022-09-02T03:03:17.665Z,64.93
2022-09-02T03:04:17.696Z,64.95
2022-09-02T03:05:17.633Z,67.69
2022-09-02T03:06:19.437Z,68.30
2022-09-02T03:07:18.604Z,66.61
2022-09-02T03:08:17.594Z,65.53
2022-09-02T03:09:17.604Z,65.52
2022-09-02T03:10:17.552Z,66.64
2022-09-02T03:11:17.528Z,64.90
2022-09-02T03:12:17.517Z,64.90
2022-09-02T03:13:17.527Z,68.33
2022-09-02T03:14:17.510Z,68.46
2022-09-02T03:15:17.501Z,67.29
2022-09-02T03:16:17.552Z,63.73
2022-09-02T03:17:17.433Z,65.21
2022-09-02T03:18:17.463Z,68.20
2022-09-02T03:19:17.435Z,67.95
2022-09-02T03:20:17.394Z,68.41
2022-09-02T03:21:17.372Z,67.11
2022-09-02T03:22:17.374Z,68.18
2022-09-02T03:23:17.339Z,64.50
2022-09-02T03:24:17.357Z,66.37
2022-09-02T03:25:17.299Z,65.95
2022-09-02T03:26:18.985Z,68.29
2022-09-02T03:27:17.265Z,67.39
2022-09-02T03:28:17.251Z,66.02
2022-09-02T03:29:17.265Z,69.04
2022-09-02T03:30:17.203Z,68.70
2022-09-02T03:31:17.214Z,66.36
2022-09-02T03:32:17.197Z,69.00
2022-09-02T03:33:17.236Z,64.71
2022-09-02T03:34:17.170Z,68.37
2022-09-02T03:35:17.133Z,66.54
2022-09-02T03:36:17.115Z,64.79
2022-09-02T03:37:17.106Z,65.45
2022-09-02T03:38:17.087Z,67.77
2022-09-02T03:39:17.096Z,68.12
2022-09-02T03:40:17.078Z,67.28
2022-09-02T03:41:17.019Z,67.33
2022-09-02T03:42:19.299Z,69.06
2022-09-02T03:43:16.983Z,69.12
2022-09-02T03:44:17.014Z,64.37
2022-09-02T03:45:16.959Z,68.34
2022-09-02T03:46:16.983Z,67.01
2022-09-02T03:47:16.967Z,67.38
2022-09-02T03:48:16.924Z,68.65
2022-09-02T03:49:16.921Z,66.01
2022-09-02T03:50:16.875Z,66.24
2022-09-02T03:51:16.866Z,67.01
2022-09-02T03:52:16.861Z,66.41
2022-09-02T03:53:19.877Z,67.54
2022-09-02T03:54:16.864Z,67.15
2022-09-02T03:55:16.800Z,68.07
2022-09-02T03:56:16.777Z,68.14
2022-09-02T03:57:16.770Z,66.88
2022-09-02T03:58:16.738Z,68.27
2022-09-02T03:59:16.845Z,68.95
2022-09-02T04:00:16.725Z,67.84
2022-09-02T04:01:16.723Z,67.03
2022-09-02T04:02:16.769Z,69.18
2022-09-02T04:03:16.716Z,67.49
2022-09-02T04:04:19.738Z,68.19
2022-09-02T04:05:18.618Z,67.75
2022-09-02T04:06:16.626Z,68.15
2022-09-02T04:07:16.597Z,69.00
2022-09-02T04:08:16.569Z,68.77
2022-09-02T04:09:16.580Z,68.35
2022-09-02T04:10:16.547Z,68.87
2022-09-02T04:11:16.507Z,68.91
2022-09-02T04:12:16.511Z,66.16
2022-09-02T04:13:16.479Z,68.20
2022-09-02T04:14:16.487Z,69.56
2022-09-02T04:15:16.444Z,68.07
2022-09-02T04:16:16.535Z,67.26
2022-09-02T04:17:16.419Z,67.21
2022-09-02T04:18:16.396Z,68.70
2022-09-02T04:19:16.429Z,69.60
2022-09-02T04:20:16.377Z,67.15
2022-09-02T04:21:16.377Z,68.72
2022-09-02T04:22:16.356Z,68.99
2022-09-02T04:23:16.353Z,70.04
2022-09-02T04:24:16.359Z,69.15
2022-09-02T04:25:16.309Z,69.24
2022-09-02T04:26:16.265Z,67.44
2022-09-02T04:27:16.271Z,68.60
2022-09-02T04:28:17.282Z,68.81
2022-09-02T04:29:16.593Z,68.85
2022-09-02T04:30:16.207Z,67.14
2022-09-02T04:31:16.227Z,67.76
2022-09-02T04:32:16.182Z,67.49
2022-09-02T04:33:16.153Z,69.08
2022-09-02T04:34:16.286Z,67.55
2022-09-02T04:35:16.124Z,68.35
2022-09-02T04:36:16.123Z,68.98
2022-09-02T04:37:16.226Z,69.15
2022-09-02T04:38:16.088Z,66.97
2022-09-02T04:39:16.125Z,68.15
2022-09-02T04:40:16.070Z,68.99
2022-09-02T04:41:16.047Z,69.23
2022-09-02T04:42:16.013Z,67.51
2022-09-02T04:43:16.006Z,68.20
2022-09-02T04:44:15.998Z,65.12
2022-09-02T04:45:15.941Z,68.08
2022-09-02T04:46:16.009Z,68.44
2022-09-02T04:47:15.932Z,67.19
2022-09-02T04:48:15.902Z,67.28
2022-09-02T04:49:15.918Z,68.53
2022-09-02T04:50:15.870Z,67.19
2022-09-02T04:51:15.860Z,68.46
2022-09-02T04:52:15.838Z,66.81
2022-09-02T04:53:15.825Z,68.30
2022-09-02T04:54:15.842Z,66.36
2022-09-02T04:55:15.776Z,65.80
2022-09-02T04:56:15.784Z,68.10
2022-09-02T04:57:15.767Z,67.64
2022-09-02T04:58:15.746Z,68.29
2022-09-02T04:59:15.776Z,69.07
2022-09-02T05:00:15.701Z,65.99
2022-09-02T05:01:15.715Z,67.88
2022-09-02T05:02:15.809Z,68.11
2022-09-02T05:03:15.648Z,67.90
2022-09-02T05:04:15.660Z,67.84
2022-09-02T05:05:15.637Z,67.38
2022-09-02T05:06:15.602Z,67.75
2022-09-02T05:07:15.586Z,67.37
2022-09-02T05:08:15.569Z,67.68
2022-09-02T05:09:15.599Z,68.23
2022-09-02T05:10:15.537Z,68.21
2022-09-02T05:11:15.526Z,67.45
2022-09-02T05:12:15.500Z,68.12
2022-09-02T05:13:15.468Z,67.56
2022-09-02T05:14:15.507Z,67.72
2022-09-02T05:15:15.460Z,68.07
2022-09-02T05:16:15.435Z,67.77
2022-09-02T05:17:15.412Z,68.03
2022-09-02T05:18:15.397Z,65.05
2022-09-02T05:19:15.434Z,66.08
2022-09-02T05:20:15.350Z,67.75
2022-09-02T05:21:15.352Z,68.08
2022-09-02T05:22:15.326Z,66.73
2022-09-02T05:23:15.319Z,65.35
2022-09-02T05:24:15.336Z,65.70
2022-09-02T05:25:15.291Z,67.85
2022-09-02T05:26:15.271Z,65.67
2022-09-02T05:27:15.245Z,66.47
2022-09-02T05:28:15.255Z,67.15
2022-09-02T05:29:15.270Z,67.67
2022-09-02T05:30:15.209Z,67.11
2022-09-02T05:31:15.261Z,68.37
2022-09-02T05:32:15.177Z,69.09
2022-09-02T05:33:15.236Z,67.41
2022-09-02T05:34:15.138Z,68.66
2022-09-02T05:35:15.101Z,66.90
2022-09-02T05:36:15.091Z,66.75
2022-09-02T05:37:15.060Z,67.71
2022-09-02T05:38:15.048Z,69.32
2022-09-02T05:39:15.074Z,68.86
2022-09-02T05:40:16.069Z,66.89
2022-09-02T05:41:14.999Z,67.36
2022-09-02T05:42:15.021Z,66.52
2022-09-02T05:43:15.010Z,66.05
2022-09-02T05:44:15.009Z,68.46
2022-09-02T05:45:16.465Z,66.79
2022-09-02T05:46:15.003Z,68.62
2022-09-02T05:47:14.935Z,67.96
2022-09-02T05:48:14.900Z,67.18
2022-09-02T05:49:14.915Z,67.78
2022-09-02T05:50:14.828Z,67.32
2022-09-02T05:51:15.844Z,66.44
2022-09-02T05:52:14.821Z,67.01
2022-09-02T05:53:15.055Z,66.65
2022-09-02T05:54:14.833Z,68.65
2022-09-02T05:55:14.784Z,67.12
2022-09-02T05:56:14.761Z,68.28
2022-09-02T05:57:14.772Z,68.92
2022-09-02T05:58:14.765Z,67.98
2022-09-02T05:59:14.733Z,67.29
2022-09-02T06:00:17.670Z,67.00
2022-09-02T06:01:14.747Z,67.71
2022-09-02T06:02:14.779Z,67.96
2022-09-02T06:03:14.736Z,65.90
2022-09-02T06:04:14.663Z,66.10
2022-09-02T06:05:14.602Z,68.87
2022-09-02T06:06:14.606Z,67.68
2022-09-02T06:07:14.560Z,66.60
2022-09-02T06:08:14.608Z,67.14
2022-09-02T06:09:14.625Z,67.69
2022-09-02T06:10:14.529Z,65.77
2022-09-02T06:11:14.519Z,66.41
2022-09-02T06:12:14.485Z,68.30
2022-09-02T06:13:14.555Z,68.76
2022-09-02T06:14:14.504Z,66.60
2022-09-02T06:15:14.437Z,66.73
2022-09-02T06:16:14.497Z,65.50
2022-09-02T06:17:14.414Z,68.31
2022-09-02T06:18:14.447Z,67.36
2022-09-02T06:19:17.725Z,68.56
2022-09-02T06:20:16.379Z,67.58
2022-09-02T06:21:14.337Z,68.27
2022-09-02T06:22:14.335Z,67.43
2022-09-02T06:23:14.375Z,68.83
2022-09-02T06:24:14.349Z,66.03
2022-09-02T06:25:14.286Z,68.89
2022-09-02T06:26:14.277Z,69.65
2022-09-02T06:27:14.267Z,68.95
2022-09-02T06:28:14.239Z,68.95
2022-09-02T06:29:14.233Z,68.52
2022-09-02T06:30:14.221Z,68.21
2022-09-02T06:31:14.267Z,68.78
2022-09-02T06:32:14.174Z,67.26
2022-09-02T06:33:14.197Z,67.03
2022-09-02T06:34:14.209Z,68.21
2022-09-02T06:35:14.090Z,68.87
2022-09-02T06:36:14.100Z,68.14
2022-09-02T06:37:14.073Z,65.11
2022-09-02T06:38:14.056Z,67.01
2022-09-02T06:39:14.049Z,67.41
2022-09-02T06:40:14.076Z,67.61
2022-09-02T06:41:14.020Z,67.49
2022-09-02T06:42:13.979Z,67.94
2022-09-02T06:43:13.987Z,68.24
2022-09-02T06:44:15.189Z,67.48
2022-09-02T06:45:13.950Z,67.99
2022-09-02T06:46:13.968Z,66.87
2022-09-02T06:47:13.904Z,66.13
2022-09-02T06:48:13.885Z,67.92
2022-09-02T06:49:13.910Z,67.59
2022-09-02T06:50:13.854Z,67.13
2022-09-02T06:51:13.826Z,68.06
2022-09-02T06:52:13.877Z,68.01
2022-09-02T06:53:13.839Z,68.54
2022-09-02T06:54:14.248Z,67.91
2022-09-02T06:55:13.772Z,67.02
2022-09-02T06:56:13.746Z,67.48
2022-09-02T06:57:13.717Z,68.99
2022-09-02T06:58:13.717Z,66.52
2022-09-02T06:59:13.771Z,67.15
2022-09-02T07:00:13.734Z,68.04
2022-09-02T07:01:13.716Z,68.65
2022-09-02T07:02:13.816Z,67.42
2022-09-02T07:03:13.714Z,68.47
2022-09-02T07:04:13.659Z,69.03
2022-09-02T07:05:13.624Z,69.24
2022-09-02T07:06:13.577Z,68.42
2022-09-02T07:07:13.555Z,67.60
2022-09-02T07:08:13.535Z,68.11
2022-09-02T07:09:13.580Z,67.05
2022-09-02T07:10:13.502Z,65.11
2022-09-02T07:11:13.503Z,65.22
2022-09-02T07:12:13.474Z,67.33
2022-09-02T07:13:13.580Z,66.49
2022-09-02T07:14:13.476Z,68.29
2022-09-02T07:15:13.437Z,66.38
2022-09-02T07:16:13.428Z,68.91
2022-09-02T07:17:14.496Z,67.66
2022-09-02T07:18:13.356Z,67.22
2022-09-02T07:19:18.516Z,70.33
2022-09-02T07:20:15.326Z,67.23
2022-09-02T07:21:13.360Z,68.82
2022-09-02T07:22:13.313Z,69.56
2022-09-02T07:23:13.279Z,65.93
2022-09-02T07:24:13.286Z,69.72
2022-09-02T07:25:13.243Z,69.53
2022-09-02T07:26:13.247Z,66.31
2022-09-02T07:27:13.231Z,67.45
2022-09-02T07:28:13.214Z,68.69
2022-09-02T07:29:13.221Z,67.13
2022-09-02T07:30:13.180Z,68.05
2022-09-02T07:31:13.189Z,67.55
2022-09-02T07:32:13.146Z,67.86
2022-09-02T07:33:13.136Z,68.03
2022-09-02T07:34:13.117Z,67.78
2022-09-02T07:35:13.105Z,67.49
2022-09-02T07:36:13.074Z,67.06
2022-09-02T07:37:13.051Z,66.40
2022-09-02T07:38:13.069Z,66.76
2022-09-02T07:39:13.035Z,66.51
2022-09-02T07:40:13.061Z,67.97
2022-09-02T07:41:12.985Z,67.43
2022-09-02T07:42:12.958Z,67.84
2022-09-02T07:43:12.951Z,66.92
2022-09-02T07:44:12.969Z,67.23
2022-09-02T07:45:12.913Z,67.87
2022-09-02T07:46:12.937Z,66.81
2022-09-02T07:47:12.877Z,68.12
2022-09-02T07:48:12.869Z,68.40
2022-09-02T07:49:12.862Z,67.24
2022-09-02T07:50:21.257Z,66.64
2022-09-02T07:51:14.824Z,65.84
2022-09-02T07:52:12.797Z,67.40
2022-09-02T07:53:12.825Z,68.19
2022-09-02T07:54:12.789Z,68.41
2022-09-02T07:55:15.082Z,67.96
2022-09-02T07:56:13.774Z,67.59
2022-09-02T07:57:12.702Z,67.74
2022-09-02T07:58:12.694Z,68.31
2022-09-02T07:59:12.692Z,68.36
2022-09-02T08:00:12.649Z,67.91
2022-09-02T08:01:12.750Z,68.32
2022-09-02T08:02:12.672Z,66.95
2022-09-02T08:03:12.586Z,67.68
2022-09-02T08:04:12.607Z,66.58
2022-09-02T08:05:12.556Z,67.17
2022-09-02T08:06:12.551Z,68.49
2022-09-02T08:07:12.529Z,68.47
2022-09-02T08:08:12.583Z,68.56
2022-09-02T08:09:12.526Z,68.59
2022-09-02T08:10:12.489Z,68.24
2022-09-02T08:11:12.596Z,69.08
2022-09-02T08:12:12.449Z,67.87
2022-09-02T08:13:12.440Z,67.96
2022-09-02T08:14:12.436Z,69.85
2022-09-02T08:15:12.378Z,69.19
2022-09-02T08:16:12.450Z,68.45
2022-09-02T08:17:12.364Z,68.23
2022-09-02T08:18:14.515Z,68.27
2022-09-02T08:19:13.348Z,66.30
2022-09-02T08:20:13.323Z,67.88
2022-09-02T08:21:12.296Z,68.04
2022-09-02T08:22:12.263Z,68.16
2022-09-02T08:23:25.742Z,68.05
2022-09-02T08:24:14.259Z,68.39
2022-09-02T08:25:12.727Z,68.70
2022-09-02T08:26:12.191Z,67.84
2022-09-02T08:27:12.179Z,69.02
2022-09-02T08:28:12.178Z,67.62
2022-09-02T08:29:12.166Z,68.98
2022-09-02T08:30:12.145Z,67.16
2022-09-02T08:31:12.124Z,67.14
2022-09-02T08:32:13.146Z,68.81
2022-09-02T08:33:12.112Z,69.45
2022-09-02T08:34:12.124Z,68.85
2022-09-02T08:35:12.048Z,68.40
2022-09-02T08:36:12.056Z,69.97
2022-09-02T08:37:12.046Z,67.12
2022-09-02T08:38:12.025Z,68.16
2022-09-02T08:39:12.089Z,68.71
2022-09-02T08:40:12.029Z,68.48
2022-09-02T08:41:11.975Z,68.19
2022-09-02T08:42:11.953Z,69.10
2022-09-02T08:43:11.897Z,66.85
2022-09-02T08:44:11.984Z,69.18
2022-09-02T08:45:11.888Z,66.02
2022-09-02T08:46:11.968Z,68.92
2022-09-02T08:47:11.854Z,67.64
2022-09-02T08:48:11.839Z,66.19
2022-09-02T08:49:11.834Z,65.96
2022-09-02T08:50:11.779Z,65.57
2022-09-02T08:51:11.771Z,65.64
2022-09-02T08:52:15.882Z,67.28
2022-09-02T08:53:13.759Z,67.91
2022-09-02T08:54:12.117Z,67.57
2022-09-02T08:55:11.704Z,66.17
2022-09-02T08:56:11.686Z,67.30
2022-09-02T08:57:11.693Z,67.24
2022-09-02T08:58:11.685Z,67.93
2022-09-02T08:59:11.655Z,66.83
2022-09-02T09:00:11.615Z,67.70
2022-09-02T09:01:11.677Z,66.19
2022-09-02T09:02:11.612Z,66.90
2022-09-02T09:03:12.584Z,67.66
2022-09-02T09:04:11.592Z,65.10
2022-09-02T09:05:11.525Z,65.62
2022-09-02T09:06:11.527Z,67.82
2022-09-02T09:07:11.529Z,65.80
2022-09-02T09:08:14.518Z,66.79
2022-09-02T09:09:11.513Z,65.20
2022-09-02T09:10:11.477Z,65.38
2022-09-02T09:11:11.501Z,65.72
2022-09-02T09:12:11.418Z,67.07
2022-09-02T09:13:11.418Z,65.72
2022-09-02T09:14:11.423Z,66.07
2022-09-02T09:15:11.391Z,64.76
2022-09-02T09:16:11.378Z,64.87
2022-09-02T09:17:11.357Z,66.45
2022-09-02T09:18:11.351Z,66.40
2022-09-02T09:19:11.376Z,64.26
2022-09-02T09:20:11.309Z,66.53
2022-09-02T09:21:11.470Z,66.95
2022-09-02T09:22:11.282Z,66.65
2022-09-02T09:23:11.241Z,66.37
2022-09-02T09:24:11.294Z,65.90
2022-09-02T09:25:11.248Z,67.65
2022-09-02T09:26:11.225Z,66.23
2022-09-02T09:27:11.203Z,63.62
2022-09-02T09:28:11.174Z,63.34
2022-09-02T09:29:11.348Z,64.35
2022-09-02T09:30:15.084Z,64.59
2022-09-02T09:31:12.149Z,65.13
2022-09-02T09:32:11.107Z,66.11
2022-09-02T09:33:11.091Z,64.25
2022-09-02T09:34:11.109Z,62.99
2022-09-02T09:35:11.078Z,63.42
2022-09-02T09:36:11.042Z,63.28
2022-09-02T09:37:11.022Z,63.37
2022-09-02T09:38:11.019Z,62.32
2022-09-02T09:39:11.054Z,63.43
2022-09-02T09:40:11.059Z,63.51
2022-09-02T09:41:10.970Z,64.53
2022-09-02T09:42:10.982Z,63.65
2022-09-02T09:43:14.860Z,61.99
2022-09-02T09:44:10.998Z,64.65
2022-09-02T09:45:10.895Z,63.92
2022-09-02T09:46:10.983Z,64.02
2022-09-02T09:47:13.630Z,65.66
2022-09-02T09:48:11.866Z,64.86
2022-09-02T09:49:10.905Z,64.45
2022-09-02T09:50:10.820Z,64.30
2022-09-02T09:51:10.817Z,64.78
2022-09-02T09:52:10.786Z,64.70
2022-09-02T09:53:10.799Z,63.19
2022-09-02T09:54:10.785Z,64.72
2022-09-02T09:55:12.375Z,63.65
2022-09-02T09:56:11.766Z,64.12
2022-09-02T09:57:10.718Z,64.74
2022-09-02T09:58:10.712Z,64.64
2022-09-02T09:59:10.728Z,63.73
2022-09-02T10:00:10.671Z,64.43
2022-09-02T10:01:10.733Z,65.16
2022-09-02T10:02:10.700Z,65.23
2022-09-02T10:03:10.627Z,64.44
2022-09-02T10:04:39.505Z,63.32
2022-09-02T10:05:12.600Z,62.95
2022-09-02T10:06:10.611Z,63.62
2022-09-02T10:07:10.570Z,63.76
2022-09-02T10:08:15.392Z,64.04
2022-09-02T10:09:11.585Z,65.23
2022-09-02T10:10:10.537Z,65.14
2022-09-02T10:11:10.504Z,64.00
2022-09-02T10:12:10.503Z,65.65
2022-09-02T10:13:10.514Z,63.63
2022-09-02T10:14:10.491Z,65.09
2022-09-02T10:15:10.448Z,63.92
2022-09-02T10:16:10.518Z,64.32
2022-09-02T10:17:10.429Z,65.16
2022-09-02T10:18:10.409Z,64.50
2022-09-02T10:19:10.452Z,63.46
2022-09-02T10:20:10.364Z,64.84
2022-09-02T10:21:17.401Z,64.98
2022-09-02T10:22:12.412Z,65.92
2022-09-02T10:23:10.337Z,63.13
2022-09-02T10:24:10.351Z,66.11
2022-09-02T10:25:10.307Z,64.81
2022-09-02T10:26:10.345Z,63.69
2022-09-02T10:27:10.268Z,62.92
2022-09-02T10:28:10.265Z,64.91
2022-09-02T10:29:10.268Z,62.78
2022-09-02T10:30:10.233Z,63.04
2022-09-02T10:31:10.267Z,62.30
2022-09-02T10:32:10.197Z,62.69
2022-09-02T10:33:10.187Z,63.89
2022-09-02T10:34:10.225Z,64.09
2022-09-02T10:35:10.147Z,64.10
2022-09-02T10:36:13.996Z,64.77
2022-09-02T10:37:11.124Z,61.82
2022-09-02T10:38:10.119Z,64.84
2022-09-02T10:39:10.121Z,65.60
2022-09-02T10:40:10.102Z,64.48
2022-09-02T10:41:10.083Z,63.68
2022-09-02T10:42:10.051Z,64.65
2022-09-02T10:43:10.024Z,66.19
2022-09-02T10:44:10.073Z,66.18
2022-09-02T10:45:10.006Z,66.57
2022-09-02T10:46:10.064Z,67.84
2022-09-02T10:47:09.972Z,67.38
2022-09-02T10:48:09.964Z,67.71
2022-09-02T10:49:09.962Z,65.67
2022-09-02T10:50:09.933Z,67.61
2022-09-02T10:51:09.898Z,67.20
2022-09-02T10:52:09.969Z,68.36
2022-09-02T10:53:09.911Z,65.82
2022-09-02T10:54:16.650Z,66.74
2022-09-02T10:55:09.844Z,68.48
2022-09-02T10:56:09.928Z,65.71
2022-09-02T10:57:09.829Z,66.84
2022-09-02T10:58:09.811Z,67.50
2022-09-02T10:59:09.819Z,66.88
2022-09-02T11:00:09.777Z,68.04
2022-09-02T11:01:09.939Z,68.34
2022-09-02T11:02:09.796Z,67.67
2022-09-02T11:03:09.843Z,68.00
2022-09-02T11:04:09.743Z,66.22
2022-09-02T11:05:09.699Z,65.42
2022-09-02T11:06:09.765Z,65.08
2022-09-02T11:07:09.667Z,66.24
2022-09-02T11:08:09.638Z,66.00
2022-09-02T11:09:09.671Z,65.69
2022-09-02T11:10:09.623Z,65.83
2022-09-02T11:11:09.604Z,64.51
2022-09-02T11:12:09.578Z,65.17
2022-09-02T11:13:09.578Z,64.51
2022-09-02T11:14:09.675Z,66.66
2022-09-02T11:15:09.558Z,68.61
2022-09-02T11:16:09.603Z,67.26
2022-09-02T11:17:13.323Z,66.31
2022-09-02T11:18:10.513Z,65.30
2022-09-02T11:19:09.508Z,66.12
2022-09-02T11:20:09.458Z,66.67
2022-09-02T11:21:09.444Z,66.34
2022-09-02T11:22:09.424Z,66.90
2022-09-02T11:23:09.412Z,67.24
2022-09-02T11:24:09.417Z,67.22
2022-09-02T11:25:09.453Z,67.70
2022-09-02T11:26:09.392Z,65.89
2022-09-02T11:27:25.881Z,67.65
2022-09-02T11:28:11.328Z,66.25
2022-09-02T11:29:09.349Z,64.91
2022-09-02T11:30:09.320Z,66.14
2022-09-02T11:31:09.289Z,67.25
2022-09-02T11:32:09.268Z,66.58
2022-09-02T11:33:09.250Z,65.54
2022-09-02T11:34:09.271Z,66.31
2022-09-02T11:35:09.223Z,64.14
2022-09-02T11:36:09.241Z,65.96
2022-09-02T11:37:09.187Z,67.04
2022-09-02T11:38:09.175Z,66.60
2022-09-02T11:39:10.192Z,65.48
2022-09-02T11:40:33.125Z,67.07
2022-09-02T11:42:11.218Z,66.20
2022-09-02T11:43:09.091Z,66.44
2022-09-02T11:44:09.132Z,67.00
2022-09-02T11:45:09.117Z,66.10
2022-09-02T11:46:09.488Z,66.70
2022-09-02T11:47:09.034Z,67.34
2022-09-02T11:48:09.114Z,67.55
2022-09-02T11:49:09.033Z,67.07
2022-09-02T11:50:09.798Z,66.75
2022-09-02T11:51:09.768Z,67.80
2022-09-02T11:52:09.911Z,65.75
2022-09-02T11:53:08.926Z,66.83
2022-09-02T11:54:08.970Z,67.35
2022-09-02T11:55:08.881Z,67.67
2022-09-02T11:56:08.890Z,68.29
2022-09-02T11:57:08.884Z,68.00
2022-09-02T11:58:08.870Z,68.50
2022-09-02T11:59:08.858Z,69.79
2022-09-02T12:00:08.804Z,67.71
2022-09-02T12:01:13.682Z,68.44
2022-09-02T12:02:09.770Z,67.92
2022-09-02T12:03:28.367Z,67.20
2022-09-02T12:05:10.797Z,66.54
2022-09-02T12:06:08.864Z,66.49
2022-09-02T12:07:10.157Z,67.16
2022-09-02T12:08:08.681Z,67.56
2022-09-02T12:09:08.722Z,68.06
2022-09-02T12:10:08.671Z,65.72
2022-09-02T12:11:08.659Z,64.65
2022-09-02T12:12:08.622Z,67.29
2022-09-02T12:13:09.912Z,67.21
2022-09-02T12:14:08.609Z,66.56
2022-09-02T12:15:08.586Z,66.94
2022-09-02T12:16:08.651Z,66.69
2022-09-02T12:17:08.542Z,68.12
2022-09-02T12:18:08.512Z,67.41
2022-09-02T12:19:08.533Z,66.27
2022-09-02T12:20:08.512Z,65.39
2022-09-02T12:21:08.473Z,66.15
2022-09-02T12:22:09.475Z,65.45
2022-09-02T12:23:08.450Z,65.85
2022-09-02T12:24:08.412Z,65.56
2022-09-02T12:25:08.487Z,65.61
2022-09-02T12:26:09.597Z,66.11
2022-09-02T12:27:08.372Z,66.78
2022-09-02T12:28:08.364Z,66.96
2022-09-02T12:29:08.340Z,67.16
2022-09-02T12:30:08.439Z,67.61
2022-09-02T12:31:08.525Z,67.39
2022-09-02T12:32:08.296Z,67.14
2022-09-02T12:33:08.280Z,66.57
2022-09-02T12:34:08.254Z,66.67
2022-09-02T12:35:08.321Z,68.67
2022-09-02T12:36:08.323Z,67.84
2022-09-02T12:37:08.238Z,66.88
2022-09-02T12:38:08.196Z,67.02
2022-09-02T12:39:09.974Z,67.92
2022-09-02T12:40:11.288Z,67.73
2022-09-02T12:41:08.140Z,68.96
2022-09-02T12:42:08.209Z,69.62
2022-09-02T12:43:08.112Z,70.09
2022-09-02T12:44:08.085Z,70.18
2022-09-02T12:45:08.120Z,71.18
2022-09-02T12:46:08.196Z,70.42
2022-09-02T12:47:08.047Z,68.28
2022-09-02T12:48:08.034Z,68.88
2022-09-02T12:49:08.010Z,69.31
2022-09-02T12:50:08.231Z,68.32
2022-09-02T12:51:07.970Z,68.57
2022-09-02T12:52:07.967Z,68.85
2022-09-02T12:53:07.962Z,68.83
2022-09-02T12:54:07.940Z,66.98